createdAt,value
2024-03-09T00:00:45.187Z,2.01
2024-03-09T00:03:41.294Z,2.14
2024-03-09T00:06:28.712Z,3.19
2024-03-09T00:09:16.014Z,4.15
2024-03-09T00:12:09.401Z,4.74
2024-03-09T00:14:57.153Z,5.19
2024-03-09T00:17:45.660Z,5.56
2024-03-09T00:20:36.688Z,5.00
2024-03-09T00:23:28.024Z,3.61
2024-03-09T00:26:15.481Z,2.70
2024-03-09T00:29:03.972Z,3.31
2024-03-09T00:31:53.303Z,4.10
2024-03-09T00:34:40.913Z,4.74
2024-03-09T00:37:28.300Z,5.28
2024-03-09T00:40:16.209Z,5.78
2024-03-09T00:43:08.467Z,5.08
2024-03-09T00:45:56.480Z,3.78
2024-03-09T00:48:44.909Z,2.83
2024-03-09T00:51:32.620Z,2.24
2024-03-09T00:54:20.418Z,2.04
2024-03-09T00:57:07.651Z,3.06
2024-03-09T00:59:55.675Z,4.21
2024-03-09T01:02:45.906Z,4.95
2024-03-09T01:05:34.278Z,5.43
2024-03-09T01:08:21.691Z,5.73
2024-03-09T01:11:09.733Z,5.93
2024-03-09T01:13:57.935Z,5.01
2024-03-09T01:16:46.404Z,3.83
2024-03-09T01:19:33.982Z,2.97
2024-03-09T01:22:22.305Z,2.36
2024-03-09T01:25:10.237Z,2.47
2024-03-09T01:27:57.943Z,3.50
2024-03-09T01:30:46.578Z,4.20
2024-03-09T01:33:34.293Z,4.76
2024-03-09T01:36:24.142Z,5.21
2024-03-09T01:39:11.790Z,5.64
2024-03-09T01:41:59.147Z,5.41
2024-03-09T01:44:52.101Z,4.22
2024-03-09T01:47:40.736Z,3.05
2024-03-09T01:50:28.619Z,2.30
2024-03-09T01:53:19.421Z,2.45
2024-03-09T01:56:13.045Z,3.50
2024-03-09T01:59:01.292Z,4.25
2024-03-09T02:01:52.573Z,4.92
2024-03-09T02:04:42.387Z,5.41
2024-03-09T02:07:31.641Z,5.67
2024-03-09T02:10:19.955Z,5.45
2024-03-09T02:13:07.801Z,4.09
2024-03-09T02:15:55.488Z,3.02
2024-03-09T02:18:46.542Z,2.20
2024-03-09T02:21:36.240Z,1.98
2024-03-09T02:24:30.362Z,3.12
2024-03-09T02:27:20.181Z,4.08
2024-03-09T02:30:09.813Z,4.66
2024-03-09T02:32:58.932Z,5.17
2024-03-09T02:35:46.615Z,5.34
2024-03-09T02:38:33.880Z,4.54
2024-03-09T02:41:22.582Z,3.46
2024-03-09T02:44:14.260Z,2.71
2024-03-09T02:47:01.899Z,2.88
2024-03-09T02:49:51.279Z,3.97
2024-03-09T02:52:39.012Z,4.90
2024-03-09T02:55:28.320Z,5.57
2024-03-09T02:58:17.879Z,5.95
2024-03-09T03:01:09.150Z,6.31
2024-03-09T03:04:03.976Z,5.95
2024-03-09T03:06:51.871Z,4.59
2024-03-09T03:09:39.259Z,3.60
2024-03-09T03:12:27.614Z,2.92
2024-03-09T03:15:15.766Z,2.40
2024-03-09T03:18:03.248Z,2.32
2024-03-09T03:20:50.967Z,3.46
2024-03-09T03:23:38.388Z,4.49
2024-03-09T03:26:25.772Z,5.09
2024-03-09T03:29:13.171Z,5.42
2024-03-09T03:32:02.806Z,5.68
2024-03-09T03:34:50.607Z,5.89
2024-03-09T03:37:38.514Z,5.12
2024-03-09T03:40:25.989Z,3.96
2024-03-09T03:43:13.656Z,3.14
2024-03-09T03:46:02.561Z,2.56
2024-03-09T03:48:50.315Z,2.26
2024-03-09T03:51:39.334Z,3.14
2024-03-09T03:54:27.188Z,4.30
2024-03-09T03:57:14.820Z,5.21
2024-03-09T04:00:02.266Z,5.83
2024-03-09T04:02:53.446Z,5.78
2024-03-09T04:05:41.048Z,4.56
2024-03-09T04:08:29.175Z,3.49
2024-03-09T04:11:16.626Z,2.98
2024-03-09T04:14:05.564Z,3.87
2024-03-09T04:16:56.422Z,4.70
2024-03-09T04:19:44.253Z,5.17
2024-03-09T04:22:35.217Z,5.59
2024-03-09T04:25:24.056Z,5.96
2024-03-09T04:28:22.433Z,6.24
2024-03-09T04:31:10.901Z,5.56
2024-03-09T04:33:58.565Z,4.23
2024-03-09T04:36:47.253Z,3.28
2024-03-09T04:39:39.962Z,2.94
2024-03-09T04:42:29.858Z,3.97
2024-03-09T04:45:21.076Z,5.04
2024-03-09T04:48:11.027Z,5.80
2024-03-09T04:50:59.074Z,5.69
2024-03-09T04:53:46.757Z,4.44
2024-03-09T04:56:34.587Z,3.40
2024-03-09T04:59:22.061Z,2.72
2024-03-09T05:02:09.707Z,2.70
2024-03-09T05:04:57.336Z,3.83
2024-03-09T05:07:47.563Z,4.70
2024-03-09T05:10:35.018Z,5.47
2024-03-09T05:13:22.289Z,6.04
2024-03-09T05:16:09.742Z,6.43
2024-03-09T05:18:57.323Z,6.43
2024-03-09T05:21:46.016Z,5.24
2024-03-09T05:24:33.291Z,4.14
2024-03-09T05:27:21.152Z,3.32
2024-03-09T05:30:16.436Z,2.76
2024-03-09T05:33:11.006Z,2.72
2024-03-09T05:35:58.689Z,3.91
2024-03-09T05:38:50.041Z,4.88
2024-03-09T05:41:38.538Z,5.58
2024-03-09T05:44:27.167Z,6.00
2024-03-09T05:47:15.165Z,6.12
2024-03-09T05:50:02.888Z,4.96
2024-03-09T05:52:55.233Z,3.95
2024-03-09T05:55:45.295Z,3.20
2024-03-09T05:58:33.793Z,2.95
2024-03-09T06:01:28.665Z,3.97
2024-03-09T06:04:16.642Z,5.04
2024-03-09T06:07:04.298Z,5.77
2024-03-09T06:09:51.531Z,5.78
2024-03-09T06:12:39.695Z,4.79
2024-03-09T06:15:29.133Z,3.82
2024-03-09T06:18:20.823Z,3.41
2024-03-09T06:21:08.564Z,4.38
2024-03-09T06:23:56.470Z,5.38
2024-03-09T06:26:44.377Z,6.04
2024-03-09T06:29:32.984Z,6.34
2024-03-09T06:32:20.619Z,5.35
2024-03-09T06:35:08.674Z,4.40
2024-03-09T06:38:06.755Z,3.76
2024-03-09T06:40:54.709Z,3.53
2024-03-09T06:43:42.425Z,4.53
2024-03-09T06:46:30.324Z,5.66
2024-03-09T06:49:19.450Z,6.25
2024-03-09T06:52:07.424Z,5.74
2024-03-09T06:54:55.057Z,4.79
2024-03-09T06:57:42.748Z,4.11
2024-03-09T07:00:32.401Z,3.67
2024-03-09T07:03:20.224Z,3.78
2024-03-09T07:06:09.946Z,5.15
2024-03-09T07:08:59.244Z,6.37
2024-03-09T07:11:46.804Z,6.71
2024-03-09T07:14:34.527Z,5.65
2024-03-09T07:17:22.538Z,4.85
2024-03-09T07:20:14.210Z,4.39
2024-03-09T07:23:02.067Z,4.04
2024-03-09T07:25:50.527Z,3.76
2024-03-09T07:28:38.246Z,4.35
2024-03-09T07:31:28.952Z,5.56
2024-03-09T07:34:19.193Z,6.53
2024-03-09T07:37:06.578Z,7.00
2024-03-09T07:39:54.994Z,6.09
2024-03-09T07:42:44.287Z,5.35
2024-03-09T07:45:32.420Z,5.07
2024-03-09T07:48:19.671Z,4.98
2024-03-09T07:51:11.475Z,4.98
2024-03-09T07:54:00.080Z,5.32
2024-03-09T07:56:47.697Z,6.70
2024-03-09T07:59:35.114Z,7.95
2024-03-09T08:02:22.736Z,8.39
2024-03-09T08:05:15.572Z,7.61
2024-03-09T08:08:11.348Z,7.03
2024-03-09T08:10:59.709Z,6.84
2024-03-09T08:13:47.740Z,6.78
2024-03-09T08:16:35.326Z,7.18
2024-03-09T08:19:23.514Z,8.84
2024-03-09T08:22:12.260Z,10.12
2024-03-09T08:24:59.753Z,9.84
2024-03-09T08:27:48.884Z,9.24
2024-03-09T08:30:36.408Z,8.75
2024-03-09T08:33:24.229Z,8.52
2024-03-09T08:36:14.040Z,8.50
2024-03-09T08:39:02.176Z,9.01
2024-03-09T08:41:50.238Z,9.73
2024-03-09T08:44:38.232Z,10.60
2024-03-09T08:47:26.350Z,11.71
2024-03-09T08:50:14.533Z,13.17
2024-03-09T08:53:02.306Z,14.15
2024-03-09T08:55:50.095Z,14.80
2024-03-09T08:58:39.332Z,15.82
2024-03-09T09:01:27.181Z,16.36
2024-03-09T09:04:14.704Z,17.03
2024-03-09T09:07:03.182Z,17.90
2024-03-09T09:09:51.538Z,18.50
2024-03-09T09:12:40.853Z,18.73
2024-03-09T09:15:28.677Z,19.00
2024-03-09T09:18:16.380Z,19.54
2024-03-09T09:21:04.060Z,19.91
2024-03-09T09:23:51.735Z,20.39
2024-03-09T09:26:39.391Z,21.00
2024-03-09T09:29:30.357Z,21.42
2024-03-09T09:32:21.318Z,21.65
2024-03-09T09:35:10.508Z,21.94
2024-03-09T09:37:59.991Z,22.41
2024-03-09T09:40:52.777Z,22.71
2024-03-09T09:43:40.943Z,22.90
2024-03-09T09:46:30.670Z,23.08
2024-03-09T09:49:18.736Z,23.36
2024-03-09T09:52:08.633Z,23.68
2024-03-09T09:54:57.913Z,24.05
2024-03-09T09:57:47.463Z,24.18
2024-03-09T10:00:35.289Z,24.15
2024-03-09T10:03:23.105Z,24.25
2024-03-09T10:06:22.845Z,24.50
2024-03-09T10:09:10.470Z,24.65
2024-03-09T10:11:58.300Z,24.87
2024-03-09T10:14:46.676Z,24.94
2024-03-09T10:17:35.776Z,25.00
2024-03-09T10:20:23.559Z,25.16
2024-03-09T10:23:15.383Z,25.35
2024-03-09T10:26:07.982Z,25.40
2024-03-09T10:29:00.020Z,25.55
2024-03-09T10:31:51.678Z,25.61
2024-03-09T10:34:39.879Z,25.61
2024-03-09T10:37:27.843Z,25.61
2024-03-09T10:40:15.544Z,25.51
2024-03-09T10:43:03.341Z,25.33
2024-03-09T10:45:54.588Z,25.19
2024-03-09T10:48:49.661Z,24.92
2024-03-09T10:51:51.879Z,24.70
2024-03-09T10:54:56.466Z,24.46
2024-03-09T10:57:45.747Z,24.37
2024-03-09T11:00:34.756Z,24.46
2024-03-09T11:03:25.369Z,24.50
2024-03-09T11:06:14.480Z,24.62
2024-03-09T11:09:07.577Z,24.83
2024-03-09T11:11:55.253Z,24.85
2024-03-09T11:14:51.715Z,24.82
2024-03-09T11:17:43.858Z,24.67
2024-03-09T11:20:31.699Z,24.65
2024-03-09T11:23:25.013Z,24.40
2024-03-09T11:26:15.119Z,24.17
2024-03-09T11:29:02.988Z,23.87
2024-03-09T11:32:07.208Z,23.75
2024-03-09T11:35:32.193Z,23.51
2024-03-09T11:38:22.230Z,22.79
2024-03-09T11:41:10.108Z,21.86
2024-03-09T11:44:01.266Z,21.00
2024-03-09T11:46:50.241Z,20.43
2024-03-09T11:49:41.160Z,20.11
2024-03-09T11:52:31.700Z,19.99
2024-03-09T11:55:21.972Z,19.94
2024-03-09T11:58:09.797Z,19.86
2024-03-09T12:00:57.805Z,19.52
2024-03-09T12:03:45.226Z,18.81
2024-03-09T12:06:33.075Z,18.30
2024-03-09T12:09:23.170Z,17.50
2024-03-09T12:12:15.855Z,16.63
2024-03-09T12:15:05.310Z,15.99
2024-03-09T12:17:53.831Z,15.52
2024-03-09T12:20:42.181Z,15.18
2024-03-09T12:23:30.064Z,14.90
2024-03-09T12:26:17.786Z,14.81
2024-03-09T12:29:08.411Z,14.62
2024-03-09T12:31:57.429Z,14.34
2024-03-09T12:34:45.356Z,14.25
2024-03-09T12:37:36.327Z,14.22
2024-03-09T12:40:24.020Z,13.96
2024-03-09T12:43:13.522Z,13.62
2024-03-09T12:46:02.527Z,13.07
2024-03-09T12:48:50.402Z,12.38
2024-03-09T12:51:38.693Z,11.72
2024-03-09T12:54:29.587Z,11.29
2024-03-09T12:57:21.655Z,10.89
2024-03-09T13:00:20.528Z,10.47
2024-03-09T13:03:08.122Z,10.02
2024-03-09T13:05:55.543Z,9.68
2024-03-09T13:08:44.582Z,9.44
2024-03-09T13:11:32.506Z,9.27
2024-03-09T13:14:23.497Z,9.11
2024-03-09T13:17:11.477Z,8.99
2024-03-09T13:19:59.213Z,8.74
2024-03-09T13:22:48.870Z,8.40
2024-03-09T13:25:36.754Z,8.24
2024-03-09T13:28:26.850Z,8.15
2024-03-09T13:31:15.816Z,8.15
2024-03-09T13:34:07.242Z,8.13
2024-03-09T13:36:55.187Z,8.04
2024-03-09T13:39:44.267Z,7.86
2024-03-09T13:42:32.009Z,7.66
2024-03-09T13:45:20.930Z,7.45
2024-03-09T13:48:17.378Z,7.24
2024-03-09T13:51:05.668Z,6.95
2024-03-09T13:53:53.076Z,6.66
2024-03-09T13:56:41.004Z,6.38
2024-03-09T13:59:30.052Z,6.09
2024-03-09T14:02:18.282Z,5.84
2024-03-09T14:05:09.008Z,5.59
2024-03-09T14:07:58.349Z,5.38
2024-03-09T14:10:47.430Z,5.19
2024-03-09T14:13:36.622Z,5.06
2024-03-09T14:16:27.700Z,4.95
2024-03-09T14:19:18.890Z,4.87
2024-03-09T14:22:06.735Z,4.75
2024-03-09T14:24:54.351Z,4.64
2024-03-09T14:27:42.274Z,4.54
2024-03-09T14:30:41.073Z,4.41
2024-03-09T14:33:29.450Z,4.28
2024-03-09T14:36:20.019Z,4.18
2024-03-09T14:39:10.952Z,4.04
2024-03-09T14:41:58.594Z,3.90
2024-03-09T14:44:46.868Z,3.80
2024-03-09T14:47:35.081Z,3.71
2024-03-09T14:50:22.932Z,3.61
2024-03-09T14:53:14.950Z,3.55
2024-03-09T14:56:03.171Z,4.38
2024-03-09T14:58:50.794Z,4.90
2024-03-09T15:01:39.001Z,4.79
2024-03-09T15:04:29.363Z,4.29
2024-03-09T15:07:17.754Z,3.88
2024-03-09T15:10:06.052Z,3.59
2024-03-09T15:12:53.742Z,3.39
2024-03-09T15:15:41.929Z,3.21
2024-03-09T15:18:29.656Z,3.06
2024-03-09T15:21:17.277Z,2.93
2024-03-09T15:24:05.568Z,2.82
2024-03-09T15:26:54.125Z,2.69
2024-03-09T15:29:42.058Z,2.89
2024-03-09T15:32:30.031Z,3.99
2024-03-09T15:35:19.058Z,4.00
2024-03-09T15:38:06.992Z,3.52
2024-03-09T15:40:56.044Z,3.17
2024-03-09T15:43:47.358Z,2.93
2024-03-09T15:46:37.359Z,2.74
2024-03-09T15:49:25.520Z,2.60
2024-03-09T15:52:15.028Z,2.48
2024-03-09T15:55:07.406Z,2.67
2024-03-09T15:57:55.185Z,4.01
2024-03-09T16:00:43.821Z,5.13
2024-03-09T16:03:36.221Z,5.07
2024-03-09T16:06:24.138Z,4.23
2024-03-09T16:09:15.372Z,3.65
2024-03-09T16:12:03.350Z,3.25
2024-03-09T16:14:52.590Z,2.98
2024-03-09T16:17:40.547Z,2.74
2024-03-09T16:20:33.352Z,2.85
2024-03-09T16:23:21.072Z,4.05
2024-03-09T16:26:08.552Z,5.20
2024-03-09T16:28:55.948Z,5.85
2024-03-09T16:31:43.803Z,5.24
2024-03-09T16:34:33.951Z,4.39
2024-03-09T16:37:21.293Z,3.81
2024-03-09T16:40:16.152Z,3.43
2024-03-09T16:43:06.411Z,3.40
2024-03-09T16:45:58.989Z,4.55
2024-03-09T16:48:46.696Z,5.62
2024-03-09T16:51:35.191Z,6.35
2024-03-09T16:54:23.106Z,6.37
2024-03-09T16:57:11.089Z,5.39
2024-03-09T16:59:58.656Z,4.61
2024-03-09T17:02:46.950Z,4.05
2024-03-09T17:05:34.777Z,3.66
2024-03-09T17:08:22.636Z,3.67
2024-03-09T17:11:11.915Z,5.25
2024-03-09T17:13:59.887Z,6.55
2024-03-09T17:16:48.078Z,7.13
2024-03-09T17:19:38.353Z,7.62
2024-03-09T17:22:27.031Z,7.94
2024-03-09T17:25:16.354Z,7.38
2024-03-09T17:28:06.873Z,6.20
2024-03-09T17:30:57.761Z,5.35
2024-03-09T17:33:45.318Z,4.76
2024-03-09T17:36:33.131Z,4.32
2024-03-09T17:39:23.809Z,3.98
2024-03-09T17:42:13.916Z,3.70
2024-03-09T17:45:01.755Z,3.81
2024-03-09T17:47:52.532Z,5.18
2024-03-09T17:50:40.503Z,6.47
2024-03-09T17:53:31.184Z,7.07
2024-03-09T17:56:19.205Z,7.57
2024-03-09T17:59:07.274Z,7.88
2024-03-09T18:01:55.441Z,7.41
2024-03-09T18:04:42.940Z,6.32
2024-03-09T18:07:30.687Z,5.44
2024-03-09T18:10:18.510Z,4.80
2024-03-09T18:13:11.986Z,4.27
2024-03-09T18:16:00.428Z,3.82
2024-03-09T18:18:50.737Z,3.70
2024-03-09T18:21:38.421Z,4.73
2024-03-09T18:24:25.745Z,5.74
2024-03-09T18:27:15.664Z,6.43
2024-03-09T18:30:03.242Z,6.96
2024-03-09T18:32:54.346Z,7.34
2024-03-09T18:35:43.320Z,7.59
2024-03-09T18:38:32.526Z,7.87
2024-03-09T18:41:22.189Z,8.03
2024-03-09T18:44:10.161Z,8.20
2024-03-09T18:46:59.359Z,7.93
2024-03-09T18:49:48.456Z,6.65
2024-03-09T18:52:38.171Z,5.57
2024-03-09T18:55:27.576Z,4.73
2024-03-09T18:58:15.138Z,4.12
2024-03-09T19:01:03.613Z,3.64
2024-03-09T19:03:51.948Z,3.54
2024-03-09T19:06:41.931Z,4.63
2024-03-09T19:09:32.016Z,5.66
2024-03-09T19:12:20.169Z,6.32
2024-03-09T19:15:14.298Z,6.79
2024-03-09T19:18:02.750Z,7.21
2024-03-09T19:20:50.612Z,7.48
2024-03-09T19:23:40.950Z,6.82
2024-03-09T19:26:29.080Z,5.59
2024-03-09T19:29:17.691Z,4.65
2024-03-09T19:32:06.525Z,4.47
2024-03-09T19:34:54.014Z,5.48
2024-03-09T19:37:43.432Z,6.34
2024-03-09T19:40:31.880Z,6.85
2024-03-09T19:43:19.498Z,7.15
2024-03-09T19:46:07.120Z,7.42
2024-03-09T19:48:55.009Z,7.62
2024-03-09T19:51:42.897Z,7.43
2024-03-09T19:54:32.180Z,6.31
2024-03-09T19:57:19.905Z,5.30
2024-03-09T20:00:20.349Z,4.60
2024-03-09T20:03:14.615Z,4.52
2024-03-09T20:06:03.884Z,5.54
2024-03-09T20:08:51.770Z,6.18
2024-03-09T20:11:39.775Z,6.76
2024-03-09T20:14:28.587Z,7.10
2024-03-09T20:17:17.447Z,7.34
2024-03-09T20:20:10.448Z,6.81
2024-03-09T20:22:58.952Z,5.73
2024-03-09T20:25:47.094Z,4.95
2024-03-09T20:28:34.982Z,4.39
2024-03-09T20:31:23.223Z,4.34
2024-03-09T20:34:10.948Z,5.34
2024-03-09T20:36:58.670Z,6.24
2024-03-09T20:39:46.240Z,6.74
2024-03-09T20:42:34.106Z,6.93
2024-03-09T20:45:23.017Z,6.11
2024-03-09T20:48:12.851Z,5.18
2024-03-09T20:51:02.202Z,4.80
2024-03-09T20:53:56.083Z,5.73
2024-03-09T20:56:43.623Z,6.57
2024-03-09T20:59:33.804Z,7.13
2024-03-09T21:02:30.018Z,7.45
2024-03-09T21:05:17.617Z,6.94
2024-03-09T21:08:06.340Z,5.86
2024-03-09T21:10:53.883Z,5.03
2024-03-09T21:13:41.901Z,4.77
2024-03-09T21:16:30.023Z,5.66
2024-03-09T21:19:18.112Z,6.55
2024-03-09T21:22:07.672Z,7.06
2024-03-09T21:24:55.077Z,7.41
2024-03-09T21:27:45.742Z,7.24
2024-03-09T21:30:33.550Z,6.13
2024-03-09T21:33:22.002Z,5.37
2024-03-09T21:36:09.307Z,5.91
2024-03-09T21:38:57.291Z,6.74
2024-03-09T21:41:45.580Z,6.98
2024-03-09T21:44:34.073Z,5.98
2024-03-09T21:47:21.525Z,5.07
2024-03-09T21:50:12.904Z,4.99
2024-03-09T21:53:02.290Z,5.96
2024-03-09T21:55:50.308Z,6.64
2024-03-09T21:58:38.324Z,7.04
2024-03-09T22:01:25.884Z,7.40
2024-03-09T22:04:13.456Z,6.94
2024-03-09T22:07:00.828Z,5.76
2024-03-09T22:09:48.562Z,4.85
2024-03-09T22:12:36.528Z,4.59
2024-03-09T22:15:27.003Z,5.54
2024-03-09T22:18:15.394Z,6.45
2024-03-09T22:21:03.317Z,7.01
2024-03-09T22:23:53.154Z,7.38
2024-03-09T22:26:41.126Z,7.63
2024-03-09T22:29:32.095Z,7.92
2024-03-09T22:32:20.713Z,8.18
2024-03-09T22:35:14.532Z,8.11
2024-03-09T22:38:02.345Z,6.93
2024-03-09T22:40:50.029Z,5.84
2024-03-09T22:43:37.313Z,5.08
2024-03-09T22:46:24.770Z,5.06
2024-03-09T22:49:12.082Z,6.06
2024-03-09T22:52:00.533Z,6.77
2024-03-09T22:54:50.461Z,7.23
2024-03-09T22:57:38.824Z,7.49
2024-03-09T23:00:26.664Z,7.18
2024-03-09T23:03:14.449Z,6.10
2024-03-09T23:06:02.367Z,5.17
2024-03-09T23:08:50.038Z,4.88
2024-03-09T23:11:37.490Z,5.73
2024-03-09T23:14:25.235Z,6.59
2024-03-09T23:17:13.105Z,6.97
2024-03-09T23:20:02.249Z,6.58
2024-03-09T23:22:51.829Z,5.55
2024-03-09T23:25:39.649Z,5.10
2024-03-09T23:28:27.396Z,5.88
2024-03-09T23:31:15.148Z,6.52
2024-03-09T23:34:02.909Z,6.96
2024-03-09T23:36:51.015Z,7.17
2024-03-09T23:39:38.528Z,6.35
2024-03-09T23:42:26.280Z,5.29
2024-03-09T23:45:17.516Z,4.99
2024-03-09T23:48:06.336Z,5.87
2024-03-09T23:50:54.592Z,6.77
2024-03-09T23:53:43.663Z,7.31
2024-03-09T23:56:31.106Z,7.66
2024-03-09T23:59:19.689Z,7.81
